»·PEaware :: AMX619 KGCN-KLAS

AMX619 :: KGCN-KLAS

FLIGHT INFORMATION

Flight Status: Arrived
Operator:
Aeromexico
More flights by this operator :: More flights under this callsign
Pilot: Guillermo C. (14369)
Aircraft: Unknown
(738)
More flights by this aircraft type
Origin: KGCN Grand Canyon Natl Park
United States
Destination: KLAS McCarran Intl
United States
More flights between these airports :: More routes between these airports
Route: PARKS2 PGS TYSSN3
File this flight plan on PilotEdge
Remarks: PBN / A1B1C1D1S1S2 DOF / 170417 REG / N806SB OPR / AMX RMK / TCAS SIMBRIEF
Altitude:
(Current/Filed)
20,000ft
Speed:
(Current/Filed)
418kts
Departed: 16-Apr-17 06:20 PM
Arrived: 16-Apr-17 06:56 PM
Distance/Time
Traveled:
146nm/0:36
Distance/Time
To Go:
Arrived

Flight Plot

Page will automatically refresh every two minutes.


Map Options




Map Legend


Flown Route
Filed Route
Departure Airport
Arrival Airport
Navaid (VOR, NDB)
Fix

Horizontal Profiles

Position Reports

Time Latitude Longitude Heading Altitude Ground
Speed
16-Apr-17 17:42 35.960894 -112.134975 220 6633ft 0kts
16-Apr-17 17:43 35.960894 -112.134974 220 6633ft 0kts
16-Apr-17 17:44 35.960894 -112.134974 220 6633ft 0kts
16-Apr-17 17:45 35.960894 -112.134975 220 6633ft 0kts
16-Apr-17 17:46 35.960894 -112.134975 220 6633ft 0kts
16-Apr-17 17:47 35.960894 -112.134974 220 6633ft 0kts
16-Apr-17 17:48 35.960894 -112.134975 220 6633ft 0kts
16-Apr-17 17:49 35.960894 -112.134975 220 6633ft 0kts
16-Apr-17 17:50 35.960894 -112.134974 220 6633ft 0kts
16-Apr-17 17:51 35.960894 -112.134974 220 6633ft 0kts
16-Apr-17 17:52 35.960894 -112.134974 220 6633ft 0kts
16-Apr-17 17:53 35.960894 -112.134975 220 6633ft 0kts
16-Apr-17 17:54 35.960894 -112.134974 220 6633ft 0kts
16-Apr-17 17:55 35.960894 -112.134974 220 6633ft 0kts
16-Apr-17 17:56 35.960894 -112.134975 220 6633ft 0kts
16-Apr-17 17:57 35.960894 -112.134974 220 6633ft 0kts
16-Apr-17 17:57 35.960894 -112.134975 220 6633ft 0kts
16-Apr-17 17:59 35.960894 -112.134974 220 6633ft 0kts
16-Apr-17 17:59 35.960894 -112.134974 220 6633ft 0kts
16-Apr-17 18:01 35.960894 -112.134974 220 6633ft 0kts
16-Apr-17 18:01 35.960894 -112.134975 220 6633ft 0kts
16-Apr-17 18:03 35.960894 -112.134974 220 6633ft 0kts
16-Apr-17 18:03 35.960894 -112.134974 220 6633ft 0kts
16-Apr-17 18:05 35.960894 -112.134974 220 6633ft 0kts
16-Apr-17 18:05 35.960894 -112.134974 220 6633ft 0kts
16-Apr-17 18:06 35.960894 -112.134974 220 6633ft 0kts
16-Apr-17 18:08 35.960894 -112.134974 220 6633ft 0kts
16-Apr-17 18:08 35.960894 -112.134974 220 6633ft 0kts
16-Apr-17 18:09 35.960894 -112.134974 220 6633ft 0kts
16-Apr-17 18:10 35.960894 -112.134974 220 6633ft 0kts
16-Apr-17 18:11 35.960894 -112.134974 220 6633ft 0kts
16-Apr-17 18:12 35.960894 -112.134974 220 6633ft 0kts
16-Apr-17 18:13 35.960894 -112.134975 220 6633ft 0kts
16-Apr-17 18:14 35.960894 -112.134975 220 6633ft 0kts
16-Apr-17 18:15 35.960894 -112.134975 220 6633ft 0kts
16-Apr-17 18:16 35.960894 -112.134975 220 6633ft 0kts
16-Apr-17 18:17 35.960894 -112.134975 220 6633ft 0kts
16-Apr-17 18:18 35.961051 -112.136018 281 6630ft 0kts
16-Apr-17 18:19 35.961051 -112.136018 281 6630ft 0kts
16-Apr-17 18:20 35.961010 -112.137779 221 6626ft 25kts
16-Apr-17 18:21 35.936202 -112.170043 247 7625ft 191kts
16-Apr-17 18:22 35.937586 -112.253239 260 9811ft 280kts
16-Apr-17 18:23 35.915407 -112.344016 252 9998ft 281kts
16-Apr-17 18:24 35.892754 -112.435445 253 9999ft 281kts
16-Apr-17 18:25 35.871338 -112.527594 254 9998ft 281kts
16-Apr-17 18:26 35.849721 -112.618697 253 9999ft 281kts
16-Apr-17 18:27 35.829012 -112.706434 252 10000ft 282kts
16-Apr-17 18:28 35.806989 -112.798551 253 9997ft 281kts
16-Apr-17 18:29 35.783593 -112.894857 252 12306ft 307kts
16-Apr-17 18:30 35.758923 -112.996550 252 16069ft 323kts
16-Apr-17 18:31 35.733112 -113.102537 252 19545ft 336kts
16-Apr-17 18:32 35.705372 -113.216980 252 20120ft 387kts
16-Apr-17 18:33 35.674552 -113.343056 252 20054ft 387kts
16-Apr-17 18:34 35.643461 -113.469285 252 20053ft 388kts
16-Apr-17 18:35 35.634899 -113.598526 276 20060ft 392kts
16-Apr-17 18:36 35.650599 -113.721927 277 20056ft 392kts
16-Apr-17 18:37 35.669150 -113.853398 278 20054ft 392kts
16-Apr-17 18:38 35.687977 -113.991995 276 15188ft 408kts
16-Apr-17 18:39 35.705072 -114.120302 279 12917ft 348kts
16-Apr-17 18:40 35.721045 -114.225093 277 12229ft 284kts
16-Apr-17 18:41 35.732930 -114.310082 276 12043ft 223kts
16-Apr-17 18:42 35.754379 -114.383803 324 12161ft 316kts
16-Apr-17 18:43 35.834131 -114.425169 337 12021ft 315kts
16-Apr-17 18:44 35.915385 -114.463203 337 12017ft 315kts
16-Apr-17 18:45 35.996661 -114.501467 337 10503ft 313kts
16-Apr-17 18:46 36.040753 -114.569435 286 9611ft 245kts
16-Apr-17 18:47 36.058922 -114.649265 280 8776ft 244kts
16-Apr-17 18:48 36.072946 -114.725134 274 8037ft 240kts
16-Apr-17 18:49 36.073880 -114.802146 265 7246ft 206kts
16-Apr-17 18:50 36.073797 -114.869441 265 6199ft 199kts
16-Apr-17 18:51 36.073964 -114.927543 265 5248ft 177kts
16-Apr-17 18:52 36.075193 -114.979567 263 4622ft 164kts
16-Apr-17 18:53 36.074398 -115.020190 265 3828ft 158kts
16-Apr-17 18:54 36.074078 -115.059513 267 3228ft 167kts
16-Apr-17 18:55 36.073702 -115.096874 266 2578ft 158kts
16-Apr-17 18:56 36.073675 -115.133176 266 2080ft 133kts
16-Apr-17 18:57 36.073648 -115.146265 271 2106ft 33kts
16-Apr-17 18:58 36.074759 -115.150651 306 2121ft 0kts
16-Apr-17 18:59 36.074759 -115.150651 306 2121ft 0kts
16-Apr-17 19:00 36.074759 -115.150651 306 2121ft 0kts
16-Apr-17 19:01 36.074759 -115.150651 306 2121ft 0kts
16-Apr-17 19:02 36.076752 -115.152143 334 2123ft 16kts
16-Apr-17 19:03 36.081587 -115.154961 334 2122ft 25kts
16-Apr-17 19:04 36.083665 -115.152348 111 2109ft 0kts
16-Apr-17 19:05 36.083665 -115.152348 111 2109ft 0kts
16-Apr-17 19:06 36.083665 -115.152348 111 2109ft 0kts
16-Apr-17 19:07 36.083665 -115.152348 111 2109ft 0kts
16-Apr-17 19:08 36.083665 -115.152348 111 2109ft 0kts

Navigation Log

Ident Type
Flight plan parsing failed, navigation log unavailable